createdAt,value
2022-08-19T00:01:37.918Z,4.78
2022-08-19T00:12:04.031Z,5.13
2022-08-19T00:14:33.756Z,4.63
2022-08-19T00:17:01.273Z,4.55
2022-08-19T00:19:28.011Z,3.97
2022-08-19T00:21:55.306Z,4.40
2022-08-19T00:24:21.703Z,3.87
2022-08-19T00:26:48.120Z,4.05
2022-08-19T00:29:17.570Z,3.83
2022-08-19T00:31:45.524Z,4.10
2022-08-19T00:34:13.467Z,4.30
2022-08-19T00:36:41.445Z,4.28
2022-08-19T00:39:09.219Z,4.53
2022-08-19T00:41:35.918Z,4.55
2022-08-19T00:44:14.398Z,4.45
2022-08-19T00:46:45.573Z,4.05
2022-08-19T00:49:36.337Z,4.93
2022-08-19T00:52:09.757Z,4.75
2022-08-19T00:54:38.410Z,5.70
2022-08-19T00:57:08.687Z,4.90
2022-08-19T01:00:00.993Z,5.18
2022-08-19T01:02:25.189Z,5.13
2022-08-19T01:04:51.712Z,5.00
2022-08-19T01:07:19.698Z,4.95
2022-08-19T01:09:46.427Z,5.15
2022-08-19T01:12:13.216Z,5.38
2022-08-19T01:14:41.262Z,4.80
2022-08-19T01:17:12.031Z,5.55
2022-08-19T01:19:44.043Z,5.75
2022-08-19T01:22:33.679Z,6.30
2022-08-19T01:25:01.758Z,6.32
2022-08-19T01:27:43.065Z,6.68
2022-08-19T01:30:14.945Z,7.35
2022-08-19T01:32:41.631Z,6.82
2022-08-19T01:35:08.726Z,7.63
2022-08-19T01:38:09.470Z,8.00
2022-08-19T01:40:39.167Z,8.85
2022-08-19T01:43:06.615Z,8.30
2022-08-19T01:45:34.800Z,7.70
2022-08-19T01:48:03.134Z,8.05
2022-08-19T01:53:02.324Z,8.88
2022-08-19T01:55:32.600Z,9.10
2022-08-19T01:58:01.309Z,9.57
2022-08-19T02:00:30.607Z,10.35
2022-08-19T02:02:57.256Z,10.55
2022-08-19T02:05:23.994Z,9.77
2022-08-19T02:07:50.504Z,10.25
2022-08-19T02:10:21.918Z,11.50
2022-08-19T02:12:50.413Z,10.73
2022-08-19T02:15:20.293Z,11.90
2022-08-19T02:17:47.978Z,11.05
2022-08-19T02:20:15.905Z,10.38
2022-08-19T02:22:43.484Z,10.35
2022-08-19T02:25:12.339Z,11.02
2022-08-19T02:27:39.997Z,11.52
2022-08-19T02:30:13.830Z,11.57
2022-08-19T02:32:54.398Z,11.65
2022-08-19T02:35:21.743Z,11.68
2022-08-19T02:38:07.504Z,11.60
2022-08-19T02:40:35.262Z,11.68
2022-08-19T02:43:08.267Z,12.32
2022-08-19T02:45:36.738Z,11.40
2022-08-19T02:48:14.858Z,11.20
2022-08-19T02:50:53.279Z,11.90
2022-08-19T02:53:19.890Z,12.52
2022-08-19T02:55:47.686Z,11.82
2022-08-19T02:58:15.675Z,12.25
2022-08-19T03:00:48.711Z,11.57
2022-08-19T03:03:15.200Z,11.65
2022-08-19T03:05:55.659Z,12.50
2022-08-19T03:08:23.790Z,12.40
2022-08-19T03:10:50.149Z,12.45
2022-08-19T03:13:18.351Z,13.15
2022-08-19T03:15:46.923Z,11.65
2022-08-19T03:18:14.387Z,11.93
2022-08-19T03:20:49.952Z,12.85
2022-08-19T03:23:17.209Z,11.70
2022-08-19T03:25:47.126Z,11.88
2022-08-19T03:28:24.955Z,11.60
2022-08-19T03:31:43.518Z,12.52
2022-08-19T03:33:55.622Z,11.40
2022-08-19T03:36:24.337Z,11.55
2022-08-19T03:38:57.543Z,11.95
2022-08-19T03:41:44.265Z,13.38
2022-08-19T03:44:14.305Z,11.75
2022-08-19T03:46:45.590Z,12.18
2022-08-19T03:49:14.130Z,12.02
2022-08-19T03:51:42.434Z,12.80
2022-08-19T03:54:12.421Z,12.73
2022-08-19T03:56:40.450Z,12.25
2022-08-19T03:59:09.736Z,12.88
2022-08-19T04:01:36.679Z,12.18
2022-08-19T04:04:04.742Z,12.02
2022-08-19T04:06:34.683Z,12.55
2022-08-19T04:09:04.151Z,12.20
2022-08-19T04:11:54.600Z,11.57
2022-08-19T04:14:24.989Z,11.63
2022-08-19T04:16:52.172Z,12.00
2022-08-19T04:19:19.527Z,10.98
2022-08-19T04:21:48.346Z,11.13
2022-08-19T04:24:15.601Z,10.38
2022-08-19T04:26:42.403Z,10.98
2022-08-19T04:29:12.998Z,11.63
2022-08-19T04:31:40.967Z,11.05
2022-08-19T04:34:09.336Z,10.20
2022-08-19T04:39:07.387Z,9.85
2022-08-19T04:41:53.123Z,11.02
2022-08-19T04:44:19.744Z,9.68
2022-08-19T04:46:51.223Z,9.20
2022-08-19T04:49:22.696Z,11.20
2022-08-19T04:51:50.643Z,10.65
2022-08-19T04:54:23.942Z,10.60
2022-08-19T04:57:07.807Z,11.05
2022-08-19T04:59:34.896Z,10.93
2022-08-19T05:02:01.343Z,10.68
2022-08-19T05:04:32.541Z,10.40
2022-08-19T05:07:01.100Z,10.88
2022-08-19T05:09:28.265Z,11.23
2022-08-19T05:11:59.554Z,11.30
2022-08-19T05:14:25.907Z,11.25
2022-08-19T05:17:06.482Z,10.35
2022-08-19T05:19:57.334Z,10.52
2022-08-19T05:22:44.009Z,11.43
2022-08-19T05:25:14.717Z,11.32
2022-08-19T05:27:42.707Z,12.25
2022-08-19T05:30:10.371Z,12.27
2022-08-19T05:32:37.183Z,12.00
2022-08-19T05:35:05.377Z,10.30
2022-08-19T05:37:31.774Z,12.52
2022-08-19T05:39:58.305Z,11.70
2022-08-19T05:42:24.746Z,12.75
2022-08-19T05:44:51.772Z,12.15
2022-08-19T05:47:20.566Z,14.68
2022-08-19T05:49:47.422Z,13.07
2022-08-19T05:52:16.981Z,14.93
2022-08-19T05:54:51.129Z,16.20
2022-08-19T05:57:21.489Z,15.68
2022-08-19T05:59:49.324Z,14.35
2022-08-19T06:02:19.439Z,14.82
2022-08-19T06:04:45.902Z,16.10
2022-08-19T06:07:13.065Z,17.35
2022-08-19T06:09:40.567Z,16.45
2022-08-19T06:12:07.599Z,17.90
2022-08-19T06:14:40.414Z,19.83
2022-08-19T06:17:09.072Z,18.92
2022-08-19T06:19:40.928Z,20.45
2022-08-19T06:22:08.413Z,19.77
2022-08-19T06:24:36.288Z,17.95
2022-08-19T06:27:03.828Z,18.77
2022-08-19T06:29:30.964Z,19.50
2022-08-19T06:31:59.701Z,22.50
2022-08-19T06:34:28.871Z,22.27
2022-08-19T06:36:56.913Z,21.27
2022-08-19T06:39:26.923Z,21.13
2022-08-19T06:41:58.892Z,20.27
2022-08-19T06:44:28.741Z,19.98
2022-08-19T06:46:57.020Z,24.08
2022-08-19T06:49:24.594Z,22.83
2022-08-19T06:51:51.775Z,28.80
2022-08-19T06:54:20.159Z,23.90
2022-08-19T06:56:47.574Z,30.90
2022-08-19T06:59:18.659Z,33.45
2022-08-19T07:01:49.272Z,34.30
2022-08-19T07:04:18.613Z,37.80
2022-08-19T07:06:45.984Z,38.92
2022-08-19T07:09:21.613Z,38.55
2022-08-19T07:11:50.266Z,41.28
2022-08-19T07:14:19.975Z,42.67
2022-08-19T07:16:48.514Z,37.10
2022-08-19T07:19:18.658Z,37.92
2022-08-19T07:21:47.160Z,41.10
2022-08-19T07:24:13.599Z,40.88
2022-08-19T07:26:43.115Z,39.13
2022-08-19T07:29:11.126Z,39.70
2022-08-19T07:31:38.108Z,38.45
2022-08-19T07:34:10.304Z,39.42
2022-08-19T07:36:41.511Z,39.08
2022-08-19T07:39:20.140Z,38.88
2022-08-19T07:41:47.200Z,38.60
2022-08-19T07:44:15.243Z,38.50
2022-08-19T07:46:46.477Z,39.53
2022-08-19T07:49:19.959Z,42.22
2022-08-19T07:51:53.309Z,43.45
2022-08-19T07:54:20.997Z,46.75
2022-08-19T07:56:47.508Z,44.17
2022-08-19T07:59:14.038Z,49.33
2022-08-19T08:01:41.786Z,48.53
2022-08-19T08:04:27.276Z,45.95
2022-08-19T08:07:12.982Z,47.40
2022-08-19T08:09:42.674Z,45.42
2022-08-19T08:12:33.698Z,49.60
2022-08-19T08:15:08.150Z,46.50
2022-08-19T08:17:48.866Z,44.83
2022-08-19T08:20:17.483Z,47.63
2022-08-19T08:23:04.326Z,43.47
2022-08-19T08:25:32.581Z,45.97
2022-08-19T08:28:01.126Z,44.88
2022-08-19T08:30:31.154Z,42.08
2022-08-19T08:32:59.624Z,44.78
2022-08-19T08:35:26.411Z,42.22
2022-08-19T08:37:54.627Z,37.47
2022-08-19T08:40:27.194Z,36.75
2022-08-19T08:45:41.162Z,37.72
2022-08-19T08:48:24.217Z,36.22
2022-08-19T08:50:54.187Z,34.83
2022-08-19T08:53:29.708Z,32.88
2022-08-19T08:56:01.274Z,27.27
2022-08-19T08:58:55.289Z,26.48
2022-08-19T09:01:21.824Z,25.42
2022-08-19T09:03:48.474Z,29.08
2022-08-19T09:06:37.912Z,25.13
2022-08-19T09:09:25.400Z,25.35
2022-08-19T09:12:20.911Z,25.67
2022-08-19T09:14:58.658Z,23.05
2022-08-19T09:17:31.814Z,22.25
2022-08-19T09:20:26.538Z,24.52
2022-08-19T09:22:53.031Z,21.95
2022-08-19T09:25:26.973Z,25.67
2022-08-19T09:28:02.898Z,23.48
2022-08-19T09:30:33.938Z,23.33
2022-08-19T09:33:00.381Z,22.83
2022-08-19T09:35:32.534Z,25.40
2022-08-19T09:38:16.799Z,25.50
2022-08-19T09:40:43.189Z,27.35
2022-08-19T09:43:13.240Z,25.27
2022-08-19T09:45:40.698Z,29.23
2022-08-19T09:48:07.490Z,27.80
2022-08-19T09:50:37.175Z,28.77
2022-08-19T09:53:03.731Z,27.55
2022-08-19T09:55:33.215Z,28.10
2022-08-19T09:58:01.613Z,26.08
2022-08-19T10:00:28.267Z,27.90
2022-08-19T10:02:54.656Z,27.80
2022-08-19T10:05:42.179Z,26.50
2022-08-19T10:08:13.310Z,25.90
2022-08-19T10:10:47.165Z,25.88
2022-08-19T10:13:16.190Z,23.08
2022-08-19T10:15:47.203Z,21.70
2022-08-19T10:18:16.624Z,21.42
2022-08-19T10:20:43.694Z,21.63
2022-08-19T10:23:10.449Z,20.90
2022-08-19T10:25:36.979Z,21.30
2022-08-19T10:28:06.794Z,21.77
2022-08-19T10:30:37.555Z,20.38
2022-08-19T10:33:08.678Z,21.70
2022-08-19T10:35:56.515Z,21.13
2022-08-19T10:38:31.781Z,19.88
2022-08-19T10:41:07.525Z,21.20
2022-08-19T10:43:38.091Z,18.95
2022-08-19T10:46:13.698Z,20.30
2022-08-19T10:48:41.351Z,22.70
2022-08-19T10:51:26.324Z,21.10
2022-08-19T10:53:54.348Z,20.25
2022-08-19T10:56:39.371Z,20.08
2022-08-19T10:59:06.039Z,21.02
2022-08-19T11:01:34.983Z,22.40
2022-08-19T11:04:03.684Z,20.50
2022-08-19T11:06:31.810Z,20.77
2022-08-19T11:09:00.801Z,22.65
2022-08-19T11:11:29.260Z,20.17
2022-08-19T11:13:55.676Z,18.80
2022-08-19T11:16:27.527Z,19.52
2022-08-19T11:18:59.261Z,18.63
2022-08-19T11:21:34.835Z,20.05
2022-08-19T11:24:08.187Z,17.92
2022-08-19T11:26:36.363Z,20.20
2022-08-19T11:29:04.414Z,19.17
2022-08-19T11:31:33.943Z,17.65
2022-08-19T11:34:03.978Z,20.65
2022-08-19T11:36:32.203Z,18.95
2022-08-19T11:38:58.758Z,16.80
2022-08-19T11:41:25.698Z,20.35
2022-08-19T11:43:55.065Z,17.00
2022-08-19T11:46:23.274Z,18.23
2022-08-19T11:48:51.497Z,17.83
2022-08-19T11:51:21.165Z,19.10
2022-08-19T11:53:47.581Z,18.60
2022-08-19T11:56:14.090Z,17.85
2022-08-19T11:58:42.914Z,19.50
2022-08-19T12:01:12.645Z,17.75
2022-08-19T12:03:39.560Z,17.10
2022-08-19T12:06:15.490Z,16.37
2022-08-19T12:08:43.881Z,15.98
2022-08-19T12:11:12.139Z,19.30
2022-08-19T12:13:39.980Z,19.05
2022-08-19T12:16:15.813Z,20.67
2022-08-19T12:18:46.225Z,21.42
2022-08-19T12:21:25.998Z,20.55
2022-08-19T12:23:55.795Z,20.98
2022-08-19T12:26:22.910Z,21.98
2022-08-19T12:28:49.415Z,22.53
2022-08-19T12:31:16.190Z,17.45
2022-08-19T12:33:43.094Z,21.88
2022-08-19T12:36:12.651Z,23.83
2022-08-19T12:38:40.367Z,24.55
2022-08-19T12:43:35.921Z,21.35
2022-08-19T12:46:05.231Z,21.75
2022-08-19T12:48:34.899Z,25.67
2022-08-19T12:51:07.536Z,22.67
2022-08-19T12:53:33.930Z,22.13
2022-08-19T12:56:01.084Z,23.30
2022-08-19T12:58:28.603Z,23.02
2022-08-19T13:00:55.038Z,21.60
2022-08-19T13:03:23.262Z,21.73
2022-08-19T13:05:51.790Z,23.83
2022-08-19T13:08:18.167Z,19.90
2022-08-19T13:10:44.955Z,25.00
2022-08-19T13:13:11.423Z,23.90
2022-08-19T13:15:41.098Z,24.33
2022-08-19T13:18:09.855Z,27.17
2022-08-19T13:20:38.106Z,24.75
2022-08-19T13:23:05.257Z,20.70
2022-08-19T13:25:32.152Z,23.75
2022-08-19T13:27:58.552Z,22.63
2022-08-19T13:30:43.662Z,24.38
2022-08-19T13:33:15.395Z,19.13
2022-08-19T13:35:42.962Z,19.17
2022-08-19T13:38:12.033Z,17.07
2022-08-19T13:40:39.432Z,20.45
2022-08-19T13:43:12.460Z,21.52
2022-08-19T13:45:53.798Z,18.92
2022-08-19T13:48:20.292Z,19.95
2022-08-19T13:50:48.221Z,17.85
2022-08-19T13:53:15.705Z,16.58
2022-08-19T13:55:43.782Z,16.13
2022-08-19T13:58:12.092Z,15.35
2022-08-19T14:00:42.765Z,16.88
2022-08-19T14:03:09.901Z,18.65
2022-08-19T14:05:36.720Z,22.58
2022-08-19T14:08:03.970Z,20.93
2022-08-19T14:10:31.679Z,20.50
2022-08-19T14:12:59.959Z,17.85
2022-08-19T14:15:27.664Z,17.85
2022-08-19T14:17:54.975Z,21.40
2022-08-19T14:20:22.479Z,21.40
2022-08-19T14:22:53.874Z,20.38
2022-08-19T14:27:49.060Z,19.30
2022-08-19T14:30:19.971Z,19.52
2022-08-19T14:32:46.504Z,20.73
2022-08-19T14:35:15.780Z,17.73
2022-08-19T14:37:46.166Z,18.42
2022-08-19T14:40:15.802Z,18.35
2022-08-19T14:42:42.978Z,19.70
2022-08-19T14:45:11.320Z,20.60
2022-08-19T14:47:39.628Z,20.13
2022-08-19T14:50:18.039Z,18.55
2022-08-19T14:52:46.040Z,17.33
2022-08-19T14:55:12.497Z,16.52
2022-08-19T14:57:40.986Z,15.13
2022-08-19T15:00:08.423Z,13.60
2022-08-19T15:02:35.583Z,13.73
2022-08-19T15:05:02.809Z,12.82
2022-08-19T15:07:30.170Z,11.45
2022-08-19T15:09:57.547Z,9.57
2022-08-19T15:12:24.859Z,9.68
2022-08-19T15:14:55.883Z,8.02
2022-08-19T15:17:41.394Z,9.68
2022-08-19T15:20:12.123Z,12.30
2022-08-19T15:22:38.595Z,11.55
2022-08-19T15:25:07.511Z,11.25
2022-08-19T15:27:34.023Z,10.77
2022-08-19T15:30:01.282Z,11.05
2022-08-19T15:34:55.244Z,9.90
2022-08-19T15:37:25.123Z,10.77
2022-08-19T15:39:51.735Z,5.57
2022-08-19T15:42:29.870Z,3.92
2022-08-19T15:44:56.846Z,3.05
2022-08-19T15:47:34.583Z,3.03
2022-08-19T15:50:15.405Z,3.30
2022-08-19T15:52:50.713Z,3.08
2022-08-19T15:55:34.068Z,2.90
2022-08-19T15:58:28.400Z,2.88
2022-08-19T16:01:14.870Z,2.80
2022-08-19T16:03:59.873Z,2.70
2022-08-19T16:06:26.275Z,2.50
2022-08-19T16:09:04.104Z,2.85
2022-08-19T16:11:39.422Z,2.60
2022-08-19T16:14:09.251Z,2.70
2022-08-19T16:16:36.903Z,2.50
2022-08-19T16:19:06.956Z,2.60
2022-08-19T16:21:41.524Z,2.15
2022-08-19T16:24:10.469Z,2.40
2022-08-19T16:26:37.163Z,2.20
2022-08-19T16:29:08.890Z,2.30
2022-08-19T16:31:39.023Z,2.25
2022-08-19T16:34:06.358Z,2.00
2022-08-19T16:36:33.493Z,2.45
2022-08-19T16:39:00.702Z,2.67
2022-08-19T16:41:27.944Z,2.60
2022-08-19T16:43:55.358Z,2.70
2022-08-19T16:46:22.930Z,3.00
2022-08-19T16:48:50.095Z,3.15
2022-08-19T16:51:17.042Z,3.08
2022-08-19T16:53:45.146Z,2.83
2022-08-19T16:56:12.253Z,3.15
2022-08-19T16:58:39.115Z,3.10
2022-08-19T17:01:07.759Z,5.00
2022-08-19T17:03:36.289Z,5.40
2022-08-19T17:06:15.953Z,5.57
2022-08-19T17:08:48.831Z,5.05
2022-08-19T17:11:18.582Z,5.07
2022-08-19T17:13:48.026Z,6.07
2022-08-19T17:16:16.315Z,5.85
2022-08-19T17:21:08.977Z,5.25
2022-08-19T17:23:42.327Z,5.43
2022-08-19T17:26:16.890Z,5.22
2022-08-19T17:28:49.505Z,6.28
2022-08-19T17:31:17.766Z,5.68
2022-08-19T17:36:19.468Z,5.97
2022-08-19T17:38:45.904Z,5.18
2022-08-19T17:41:12.339Z,5.28
2022-08-19T17:43:43.380Z,4.70
2022-08-19T17:46:17.751Z,4.93
2022-08-19T17:48:47.358Z,4.88
2022-08-19T17:51:22.565Z,5.10
2022-08-19T17:53:52.552Z,4.32
2022-08-19T17:56:19.757Z,4.05
2022-08-19T17:58:59.613Z,5.00
2022-08-19T18:01:33.484Z,4.13
2022-08-19T18:04:14.699Z,4.13
2022-08-19T18:06:41.855Z,4.00
2022-08-19T18:09:13.441Z,4.97
2022-08-19T18:11:39.908Z,3.70
2022-08-19T18:14:06.390Z,3.80
2022-08-19T18:16:32.795Z,3.90
2022-08-19T18:18:59.301Z,4.55
2022-08-19T18:21:31.576Z,4.50
2022-08-19T18:24:01.819Z,4.63
2022-08-19T18:26:29.079Z,4.72
2022-08-19T18:28:55.613Z,4.85
2022-08-19T18:31:23.371Z,4.47
2022-08-19T18:33:52.463Z,4.80
2022-08-19T18:36:37.433Z,4.30
2022-08-19T18:39:24.368Z,4.23
2022-08-19T18:42:09.756Z,4.03
2022-08-19T18:44:59.643Z,4.30
2022-08-19T18:47:45.121Z,4.10
2022-08-19T18:50:12.957Z,4.40
2022-08-19T18:52:40.357Z,3.60
2022-08-19T18:55:07.743Z,4.40
2022-08-19T18:57:34.267Z,4.35
2022-08-19T19:00:02.718Z,4.82
2022-08-19T19:02:29.348Z,5.50
2022-08-19T19:04:56.075Z,5.82
2022-08-19T19:07:23.280Z,5.68
2022-08-19T19:09:52.653Z,5.78
2022-08-19T19:12:19.300Z,6.88
2022-08-19T19:14:49.444Z,7.22
2022-08-19T19:17:17.114Z,7.05
2022-08-19T19:19:44.399Z,7.88
2022-08-19T19:22:13.107Z,8.77
2022-08-19T19:24:44.051Z,8.38
2022-08-19T19:27:13.822Z,9.30
2022-08-19T19:29:41.550Z,8.98
2022-08-19T19:32:20.857Z,7.00
2022-08-19T19:34:47.530Z,9.50
2022-08-19T19:37:13.938Z,8.38
2022-08-19T19:39:46.776Z,13.02
2022-08-19T19:42:19.945Z,8.93
2022-08-19T19:44:48.936Z,7.70
2022-08-19T19:47:17.377Z,7.10
2022-08-19T19:52:31.477Z,6.78
2022-08-19T19:54:57.870Z,6.78
2022-08-19T19:57:26.615Z,7.10
2022-08-19T19:59:54.175Z,6.10
2022-08-19T20:02:21.859Z,5.82
2022-08-19T20:04:51.089Z,6.13
2022-08-19T20:07:17.799Z,6.28
2022-08-19T20:09:59.222Z,5.13
2022-08-19T20:12:26.431Z,5.72
2022-08-19T20:14:52.785Z,6.15
2022-08-19T20:17:20.393Z,5.82
2022-08-19T20:19:47.728Z,4.93
2022-08-19T20:22:14.417Z,4.45
2022-08-19T20:24:42.445Z,5.18
2022-08-19T20:27:09.229Z,4.35
2022-08-19T20:29:41.659Z,4.38
2022-08-19T20:32:11.427Z,4.28
2022-08-19T20:34:39.251Z,4.30
2022-08-19T20:37:05.929Z,4.25
2022-08-19T20:39:32.349Z,4.43
2022-08-19T20:42:00.697Z,4.20
2022-08-19T20:44:27.071Z,3.90
2022-08-19T20:46:54.504Z,3.92
2022-08-19T20:49:23.003Z,4.55
2022-08-19T20:51:54.533Z,4.70
2022-08-19T20:54:21.078Z,4.40
2022-08-19T20:56:47.458Z,4.30
2022-08-19T20:59:13.835Z,4.10
2022-08-19T21:01:40.234Z,4.55
2022-08-19T21:04:06.688Z,4.15
2022-08-19T21:06:33.085Z,4.07
2022-08-19T21:08:59.446Z,3.78
2022-08-19T21:11:25.867Z,4.30
2022-08-19T21:13:52.295Z,4.28
2022-08-19T21:16:18.687Z,4.10
2022-08-19T21:18:45.081Z,4.07
2022-08-19T21:21:11.563Z,4.68
2022-08-19T21:23:37.947Z,4.38
2022-08-19T21:26:04.307Z,5.05
2022-08-19T21:28:35.827Z,4.75
2022-08-19T21:31:04.111Z,4.70
2022-08-19T21:33:32.099Z,5.82
2022-08-19T21:38:25.227Z,4.82
2022-08-19T21:40:51.723Z,5.80
2022-08-19T21:43:18.218Z,5.35
2022-08-19T21:45:46.211Z,5.55
2022-08-19T21:48:14.558Z,5.30
2022-08-19T21:50:42.440Z,5.85
2022-08-19T21:53:09.049Z,6.47
2022-08-19T21:55:41.137Z,5.82
2022-08-19T21:58:07.519Z,6.40
2022-08-19T22:00:35.311Z,6.15
2022-08-19T22:03:02.495Z,6.00
2022-08-19T22:05:31.168Z,6.38
2022-08-19T22:07:59.216Z,6.43
2022-08-19T22:10:32.768Z,6.45
2022-08-19T22:12:59.567Z,6.57
2022-08-19T22:15:29.540Z,7.07
2022-08-19T22:17:58.416Z,7.13
2022-08-19T22:20:27.859Z,7.78
2022-08-19T22:22:58.183Z,8.25
2022-08-19T22:25:31.222Z,7.97
2022-08-19T22:28:02.376Z,8.18
2022-08-19T22:30:33.576Z,7.30
2022-08-19T22:33:03.904Z,7.93
2022-08-19T22:35:35.712Z,7.97
2022-08-19T22:38:03.452Z,8.45
2022-08-19T22:40:30.959Z,7.15
2022-08-19T22:43:03.410Z,7.30
2022-08-19T22:45:31.108Z,7.07
2022-08-19T22:47:57.962Z,8.38
2022-08-19T22:50:24.967Z,7.15
2022-08-19T22:52:59.227Z,7.75
2022-08-19T22:55:27.001Z,8.20
2022-08-19T22:57:54.435Z,8.10
2022-08-19T23:00:22.674Z,8.43
2022-08-19T23:05:21.858Z,8.10
2022-08-19T23:07:52.197Z,6.75
2022-08-19T23:10:27.378Z,7.43
2022-08-19T23:12:56.678Z,7.70
2022-08-19T23:15:26.680Z,7.63
2022-08-19T23:17:56.419Z,8.32
2022-08-19T23:20:26.927Z,8.27
2022-08-19T23:22:54.750Z,8.50
2022-08-19T23:25:24.792Z,8.65
2022-08-19T23:28:10.531Z,8.52
2022-08-19T23:30:41.061Z,8.50
2022-08-19T23:33:50.841Z,7.93
2022-08-19T23:36:17.875Z,8.02
2022-08-19T23:38:46.473Z,8.45
2022-08-19T23:41:14.314Z,8.88
2022-08-19T23:43:41.910Z,7.88
2022-08-19T23:46:10.817Z,8.18
2022-08-19T23:48:38.198Z,7.22
2022-08-19T23:51:09.036Z,8.30
2022-08-19T23:53:37.778Z,7.90
2022-08-19T23:56:04.855Z,7.55
2022-08-19T23:58:31.882Z,7.65
